createdAt,value
2019-03-20T00:01:24.714Z,95619.12
2019-03-20T00:03:50.721Z,95623.54
2019-03-20T00:06:16.716Z,95626.70
2019-03-20T00:08:42.714Z,95622.81
2019-03-20T00:11:08.716Z,95621.06
2019-03-20T00:13:34.740Z,95617.98
2019-03-20T00:16:00.737Z,95625.57
2019-03-20T00:18:26.728Z,95631.33
2019-03-20T00:20:52.726Z,95632.23
2019-03-20T00:23:18.723Z,95630.91
2019-03-20T00:25:44.727Z,95630.52
2019-03-20T00:28:10.727Z,95633.27
2019-03-20T00:30:36.732Z,95635.94
2019-03-20T00:33:02.818Z,95640.86
2019-03-20T00:35:28.818Z,95638.19
2019-03-20T00:37:54.821Z,95641.69
2019-03-20T00:40:20.818Z,95648.86
2019-03-20T00:42:46.828Z,95645.28
2019-03-20T00:45:12.826Z,95648.86
2019-03-20T00:47:38.843Z,95641.77
2019-03-20T00:50:04.838Z,95646.31
2019-03-20T00:52:30.892Z,95642.80
2019-03-20T00:54:56.841Z,95647.64
2019-03-20T00:57:22.828Z,95642.39
2019-03-20T00:59:48.829Z,95644.64
2019-03-20T01:02:14.818Z,95645.47
2019-03-20T01:04:40.821Z,95641.47
2019-03-20T01:07:06.811Z,95642.92
2019-03-20T01:09:32.837Z,95638.91
2019-03-20T01:11:58.830Z,95637.97
2019-03-20T01:14:24.824Z,95639.30
2019-03-20T01:16:50.822Z,95636.75
2019-03-20T01:19:16.815Z,95639.83
2019-03-20T01:21:42.819Z,95647.84
2019-03-20T01:24:08.806Z,95641.67
2019-03-20T01:26:34.812Z,95641.17
2019-03-20T01:29:00.808Z,95633.24
2019-03-20T01:31:26.802Z,95642.58
2019-03-20T01:33:54.863Z,95644.33
2019-03-20T01:36:18.828Z,95644.45
2019-03-20T01:38:44.825Z,95640.83
2019-03-20T01:41:10.821Z,95641.36
2019-03-20T01:43:36.828Z,95647.20
2019-03-20T01:46:02.829Z,95652.53
2019-03-20T01:48:28.832Z,95654.28
2019-03-20T01:50:54.827Z,95651.70
2019-03-20T01:53:20.828Z,95653.87
2019-03-20T01:55:46.823Z,95649.98
2019-03-20T01:58:12.839Z,95652.65
2019-03-20T02:00:38.828Z,95652.23
2019-03-20T02:03:04.833Z,95653.56
2019-03-20T02:05:35.924Z,95662.48
2019-03-20T02:07:56.822Z,95661.56
2019-03-20T02:10:22.823Z,95666.98
2019-03-20T02:12:48.825Z,95667.82
2019-03-20T02:15:14.818Z,95664.73
2019-03-20T02:17:40.815Z,95662.98
2019-03-20T02:20:06.814Z,95665.77
2019-03-20T02:22:32.807Z,95669.35
2019-03-20T02:24:58.804Z,95668.02
2019-03-20T02:27:24.799Z,95666.69
2019-03-20T02:29:50.789Z,95664.85
2019-03-20T02:32:16.794Z,95666.27
2019-03-20T02:34:42.790Z,95665.77
2019-03-20T02:37:08.801Z,95666.27
2019-03-20T02:39:34.799Z,95669.44
2019-03-20T02:42:00.799Z,95670.77
2019-03-20T02:44:26.807Z,95667.80
2019-03-20T02:46:52.788Z,95674.77
2019-03-20T02:49:18.787Z,95667.71
2019-03-20T02:51:44.852Z,95673.97
2019-03-20T02:54:10.792Z,95676.22
2019-03-20T02:56:36.789Z,95678.05
2019-03-20T02:59:02.795Z,95677.22
2019-03-20T03:01:28.787Z,95682.05
2019-03-20T03:03:54.806Z,95679.87
2019-03-20T03:06:20.798Z,95686.05
2019-03-20T03:08:46.791Z,95679.99
2019-03-20T03:11:12.793Z,95682.55
2019-03-20T03:13:38.793Z,95682.25
2019-03-20T03:16:04.792Z,95687.08
2019-03-20T03:18:30.782Z,95687.58
2019-03-20T03:20:56.787Z,95691.16
2019-03-20T03:23:22.779Z,95691.16
2019-03-20T03:25:50.133Z,95695.58
2019-03-20T03:28:14.780Z,95702.67
2019-03-20T03:30:40.788Z,95697.42
2019-03-20T03:33:06.780Z,95697.42
2019-03-20T03:35:32.804Z,95705.84
2019-03-20T03:37:58.802Z,95701.03
2019-03-20T03:40:24.799Z,95700.09
2019-03-20T03:42:50.811Z,95704.62
2019-03-20T03:45:16.801Z,95711.70
2019-03-20T03:47:42.801Z,95715.70
2019-03-20T03:50:08.804Z,95716.63
2019-03-20T03:52:34.797Z,95713.95
2019-03-20T03:55:00.792Z,95721.12
2019-03-20T03:57:26.813Z,95728.71
2019-03-20T03:59:52.815Z,95729.05
2019-03-20T04:02:18.822Z,95731.38
2019-03-20T04:04:44.823Z,95733.63
2019-03-20T04:07:10.811Z,95734.88
2019-03-20T04:09:36.820Z,95729.23
2019-03-20T04:12:02.812Z,95732.83
2019-03-20T04:14:28.814Z,95730.66
2019-03-20T04:16:54.809Z,95734.58
2019-03-20T04:19:20.806Z,95737.02
2019-03-20T04:21:46.811Z,95738.77
2019-03-20T04:24:12.850Z,95738.24
2019-03-20T04:26:38.853Z,95742.24
2019-03-20T04:29:04.831Z,95746.36
2019-03-20T04:31:30.835Z,95757.83
2019-03-20T04:33:57.815Z,95754.78
2019-03-20T04:36:22.852Z,95764.12
2019-03-20T04:38:48.853Z,95766.37
2019-03-20T04:41:14.852Z,95766.45
2019-03-20T04:43:40.849Z,95767.36
2019-03-20T04:46:06.872Z,95766.86
2019-03-20T04:48:32.867Z,95771.70
2019-03-20T04:50:58.865Z,95775.36
2019-03-20T04:53:24.881Z,95782.38
2019-03-20T04:55:50.883Z,95781.34
2019-03-20T04:58:16.885Z,95782.07
2019-03-20T05:00:42.882Z,95786.07
2019-03-20T05:03:08.883Z,95785.58
2019-03-20T05:05:34.880Z,95801.17
2019-03-20T05:08:00.878Z,95801.09
2019-03-20T05:10:26.876Z,95805.39
2019-03-20T05:12:52.900Z,95814.73
2019-03-20T05:15:19.100Z,95813.81
2019-03-20T05:17:45.121Z,95827.16
2019-03-20T05:20:11.132Z,95824.98
2019-03-20T05:22:37.119Z,95831.89
2019-03-20T05:25:03.123Z,95830.55
2019-03-20T05:27:29.110Z,95834.48
2019-03-20T05:29:55.104Z,95840.73
2019-03-20T05:32:21.108Z,95848.81
2019-03-20T05:34:47.129Z,95851.89
2019-03-20T05:37:13.141Z,95849.65
2019-03-20T05:39:39.136Z,95847.78
2019-03-20T05:42:05.160Z,95853.31
2019-03-20T05:44:31.173Z,95850.38
2019-03-20T05:46:57.175Z,95856.20
2019-03-20T05:49:23.170Z,95860.21
2019-03-20T05:51:49.168Z,95864.32
2019-03-20T05:54:15.168Z,95871.41
2019-03-20T05:56:41.179Z,95873.66
2019-03-20T05:59:07.180Z,95875.49
2019-03-20T06:01:33.178Z,95880.11
2019-03-20T06:03:59.410Z,95884.94
2019-03-20T06:06:25.444Z,95879.08
2019-03-20T06:08:51.454Z,95884.94
2019-03-20T06:11:17.455Z,95887.19
2019-03-20T06:13:43.462Z,95891.20
2019-03-20T06:16:09.471Z,95891.20
2019-03-20T06:18:35.488Z,95896.11
2019-03-20T06:21:01.494Z,95893.94
2019-03-20T06:23:27.501Z,95894.66
2019-03-20T06:25:53.514Z,95901.03
2019-03-20T06:28:19.514Z,95904.53
2019-03-20T06:30:45.587Z,95897.22
2019-03-20T06:33:11.579Z,95905.95
2019-03-20T06:35:37.634Z,95905.03
2019-03-20T06:38:03.636Z,95910.87
2019-03-20T06:40:29.631Z,95905.03
2019-03-20T06:42:55.637Z,95909.95
2019-03-20T06:45:21.631Z,95911.28
2019-03-20T06:47:47.656Z,95909.95
2019-03-20T06:50:13.656Z,95907.28
2019-03-20T06:52:39.672Z,95904.91
2019-03-20T06:55:05.684Z,95910.79
2019-03-20T06:57:31.688Z,95916.13
2019-03-20T06:59:57.684Z,95914.98
2019-03-20T07:02:23.817Z,95916.13
2019-03-20T07:04:49.855Z,95913.95
2019-03-20T07:07:15.850Z,95917.95
2019-03-20T07:09:41.868Z,95919.70
2019-03-20T07:12:08.178Z,95912.50
2019-03-20T07:14:34.237Z,95920.63
2019-03-20T07:17:00.231Z,95925.05
2019-03-20T07:19:26.238Z,95927.30
2019-03-20T07:21:52.237Z,95922.38
2019-03-20T07:24:18.240Z,95920.20
2019-03-20T07:26:44.237Z,95917.95
2019-03-20T07:29:10.269Z,95917.53
2019-03-20T07:31:36.272Z,95919.29
2019-03-20T07:34:02.268Z,95916.13
2019-03-20T07:36:28.277Z,95913.95
2019-03-20T07:38:54.275Z,95917.04
2019-03-20T07:41:20.282Z,95917.45
2019-03-20T07:43:46.283Z,95917.88
2019-03-20T07:46:12.279Z,95919.63
2019-03-20T07:48:40.614Z,95922.61
2019-03-20T07:51:04.290Z,95921.50
2019-03-20T07:53:30.298Z,95921.31
2019-03-20T07:55:56.290Z,95920.41
2019-03-20T07:58:22.290Z,95917.31
2019-03-20T08:00:48.285Z,95916.89
2019-03-20T08:03:14.286Z,95921.31
2019-03-20T08:05:40.278Z,95915.30
2019-03-20T08:08:07.505Z,95913.85
2019-03-20T08:10:32.308Z,95918.63
2019-03-20T08:12:58.364Z,95916.26
2019-03-20T08:15:24.472Z,95919.58
2019-03-20T08:17:53.430Z,95916.79
2019-03-20T08:20:19.512Z,95923.54
2019-03-20T08:22:45.496Z,95917.94
2019-03-20T08:25:11.574Z,95921.02
2019-03-20T08:27:37.614Z,95920.68
2019-03-20T08:30:03.743Z,95918.20
2019-03-20T08:32:29.713Z,95914.80
2019-03-20T08:34:55.724Z,95917.92
2019-03-20T08:37:21.760Z,95916.17
2019-03-20T08:39:47.777Z,95912.05
2019-03-20T08:44:57.793Z,95905.49
2019-03-20T08:47:30.271Z,95903.66
2019-03-20T08:49:56.704Z,95907.66
2019-03-20T08:52:22.702Z,95903.66
2019-03-20T08:54:48.708Z,95901.37
2019-03-20T08:57:14.820Z,95905.38
2019-03-20T08:59:40.808Z,95904.47
2019-03-20T09:02:06.868Z,95901.48
2019-03-20T09:04:32.863Z,95902.72
2019-03-20T09:06:58.874Z,95900.23
2019-03-20T09:09:24.872Z,95899.84
2019-03-20T09:14:34.807Z,95900.77
2019-03-20T09:17:00.845Z,95897.27
2019-03-20T09:19:26.857Z,95897.27
2019-03-20T09:21:56.628Z,95896.84
2019-03-20T09:24:22.629Z,95899.73
2019-03-20T09:26:48.629Z,95893.56
2019-03-20T09:29:18.741Z,95888.23
2019-03-20T09:31:40.651Z,95888.23
2019-03-20T09:34:06.659Z,95891.42
2019-03-20T09:36:42.755Z,95883.84
2019-03-20T09:38:58.670Z,95883.42
2019-03-20T09:41:24.680Z,95878.50
2019-03-20T09:43:50.693Z,95877.67
2019-03-20T09:46:16.690Z,95880.64
2019-03-20T09:48:42.689Z,95882.09
2019-03-20T09:51:08.711Z,95880.75
2019-03-20T09:53:34.708Z,95881.06
2019-03-20T09:56:00.729Z,95881.06
2019-03-20T09:58:26.730Z,95878.31
2019-03-20T10:00:52.729Z,95874.39
2019-03-20T10:03:18.742Z,95872.03
2019-03-20T10:05:44.739Z,95866.69
2019-03-20T10:08:10.739Z,95865.36
2019-03-20T10:10:36.861Z,95870.20
2019-03-20T10:13:02.910Z,95866.19
2019-03-20T10:15:28.901Z,95874.20
2019-03-20T10:17:56.056Z,95868.37
2019-03-20T10:20:22.090Z,95864.78
2019-03-20T10:22:48.118Z,95862.50
2019-03-20T10:25:14.121Z,95858.69
2019-03-20T10:27:40.130Z,95865.40
2019-03-20T10:30:06.129Z,95863.88
2019-03-20T10:32:32.171Z,95862.65
2019-03-20T10:34:58.170Z,95864.48
2019-03-20T10:37:24.182Z,95854.23
2019-03-20T10:39:50.177Z,95853.62
2019-03-20T10:42:16.183Z,95849.20
2019-03-20T10:44:42.187Z,95848.70
2019-03-20T10:47:08.205Z,95847.36
2019-03-20T10:49:34.187Z,95843.17
2019-03-20T10:52:00.211Z,95843.59
2019-03-20T10:54:26.236Z,95835.16
2019-03-20T10:56:52.235Z,95842.06
2019-03-20T10:59:18.238Z,95834.14
2019-03-20T11:01:44.292Z,95829.72
2019-03-20T11:04:10.288Z,95832.84
2019-03-20T11:06:36.291Z,95826.09
2019-03-20T11:09:02.302Z,95827.50
2019-03-20T11:11:28.295Z,95824.75
2019-03-20T11:13:54.292Z,95829.09
2019-03-20T11:16:20.296Z,95825.09
2019-03-20T11:18:48.380Z,95824.24
2019-03-20T11:21:12.295Z,95818.30
2019-03-20T11:23:38.388Z,95822.91
2019-03-20T11:26:04.405Z,95825.50
2019-03-20T11:28:30.410Z,95817.00
2019-03-20T11:30:56.415Z,95815.97
2019-03-20T11:33:22.414Z,95822.64
2019-03-20T11:35:48.442Z,95817.41
2019-03-20T11:38:14.721Z,95813.64
2019-03-20T11:40:40.730Z,95806.55
2019-03-20T11:43:06.722Z,95816.61
2019-03-20T11:45:32.752Z,95817.64
2019-03-20T11:47:58.765Z,95801.63
2019-03-20T11:50:24.788Z,95793.92
2019-03-20T11:52:50.762Z,95788.92
2019-03-20T11:55:16.783Z,95796.81
2019-03-20T11:57:42.778Z,95797.34
2019-03-20T12:00:08.815Z,95794.20
2019-03-20T12:02:34.823Z,95793.17
2019-03-20T12:05:00.820Z,95793.29
2019-03-20T12:07:26.827Z,95796.19
2019-03-20T12:09:52.814Z,95797.59
2019-03-20T12:12:18.814Z,95795.66
2019-03-20T12:14:44.810Z,95799.47
2019-03-20T12:17:10.815Z,95795.19
2019-03-20T12:19:44.838Z,95795.69
2019-03-20T12:22:02.834Z,95791.26
2019-03-20T12:24:28.830Z,95787.67
2019-03-20T12:26:54.837Z,95787.89
2019-03-20T12:29:20.830Z,95792.59
2019-03-20T12:31:46.837Z,95790.48
2019-03-20T12:34:12.844Z,95793.05
2019-03-20T12:36:38.987Z,95794.07
2019-03-20T12:39:04.993Z,95785.23
2019-03-20T12:41:30.986Z,95786.48
2019-03-20T12:43:58.961Z,95793.66
2019-03-20T12:46:24.939Z,95784.00
2019-03-20T12:48:50.945Z,95790.81
2019-03-20T12:51:16.954Z,95789.06
2019-03-20T12:53:42.989Z,95786.89
2019-03-20T12:56:09.013Z,95790.28
2019-03-20T12:58:35.020Z,95789.17
2019-03-20T13:01:01.033Z,95788.48
2019-03-20T13:03:27.029Z,95790.95
2019-03-20T13:05:53.033Z,95781.69
2019-03-20T13:08:19.019Z,95796.33
2019-03-20T13:10:45.022Z,95789.73
2019-03-20T13:13:11.049Z,95787.25
2019-03-20T13:15:37.026Z,95792.63
2019-03-20T13:18:03.019Z,95785.95
2019-03-20T13:20:29.020Z,95786.78
2019-03-20T13:22:55.064Z,95792.34
2019-03-20T13:25:21.012Z,95791.73
2019-03-20T13:27:47.116Z,95793.37
2019-03-20T13:30:20.081Z,95797.08
2019-03-20T13:32:39.147Z,95801.72
2019-03-20T13:35:05.157Z,95799.97
2019-03-20T13:37:31.173Z,95799.66
2019-03-20T13:39:57.540Z,95802.25
2019-03-20T13:42:23.546Z,95799.05
2019-03-20T13:44:49.675Z,95805.23
2019-03-20T13:47:15.708Z,95799.47
2019-03-20T13:49:41.709Z,95804.20
2019-03-20T13:52:07.707Z,95799.66
2019-03-20T13:54:33.854Z,95797.72
2019-03-20T13:56:59.851Z,95797.60
2019-03-20T13:59:25.846Z,95797.69
2019-03-20T14:01:51.845Z,95801.19
2019-03-20T14:04:17.850Z,95803.45
2019-03-20T14:06:43.842Z,95809.34
2019-03-20T14:09:09.871Z,95805.14
2019-03-20T14:11:35.897Z,95809.76
2019-03-20T14:14:01.985Z,95811.52
2019-03-20T14:16:27.980Z,95810.88
2019-03-20T14:18:53.982Z,95810.98
2019-03-20T14:21:20.016Z,95819.61
2019-03-20T14:23:46.067Z,95814.13
2019-03-20T14:26:12.073Z,95807.06
2019-03-20T14:28:38.067Z,95810.34
2019-03-20T14:31:04.069Z,95806.75
2019-03-20T14:33:30.073Z,95816.55
2019-03-20T14:35:56.097Z,95814.70
2019-03-20T14:38:22.096Z,95815.97
2019-03-20T14:40:48.133Z,95822.81
2019-03-20T14:43:14.266Z,95827.46
2019-03-20T14:45:40.178Z,95824.98
2019-03-20T14:48:06.191Z,95830.52
2019-03-20T14:50:32.198Z,95834.00
2019-03-20T14:52:58.222Z,95835.25
2019-03-20T14:55:24.287Z,95842.34
2019-03-20T14:57:50.293Z,95843.49
2019-03-20T15:00:16.295Z,95837.61
2019-03-20T15:02:42.322Z,95846.16
2019-03-20T15:05:08.333Z,95839.17
2019-03-20T15:07:34.384Z,95850.97
2019-03-20T15:10:00.435Z,95847.69
2019-03-20T15:12:26.394Z,95852.73
2019-03-20T15:14:52.438Z,95851.78
2019-03-20T15:17:18.437Z,95857.42
2019-03-20T15:19:44.478Z,95856.01
2019-03-20T15:22:10.472Z,95860.63
2019-03-20T15:24:36.508Z,95855.59
2019-03-20T15:27:02.508Z,95862.19
2019-03-20T15:29:28.537Z,95866.70
2019-03-20T15:31:54.555Z,95874.30
2019-03-20T15:34:20.557Z,95890.74
2019-03-20T15:36:46.555Z,95887.65
2019-03-20T15:39:12.547Z,95899.78
2019-03-20T15:41:38.587Z,95906.32
2019-03-20T15:44:04.611Z,95909.52
2019-03-20T15:46:30.604Z,95908.04
2019-03-20T15:48:56.616Z,95912.97
2019-03-20T15:51:22.846Z,95915.02
2019-03-20T15:53:48.983Z,95917.58
2019-03-20T15:56:14.986Z,95921.47
2019-03-20T15:58:40.996Z,95925.98
2019-03-20T16:01:07.012Z,95931.94
2019-03-20T16:03:33.011Z,95935.52
2019-03-20T16:05:59.110Z,95941.89
2019-03-20T16:08:25.136Z,95941.97
2019-03-20T16:10:51.132Z,95940.59
2019-03-20T16:13:17.138Z,95941.21
2019-03-20T16:15:43.149Z,95945.33
2019-03-20T16:18:09.162Z,95950.86
2019-03-20T16:20:35.189Z,95959.87
2019-03-20T16:23:01.202Z,95961.31
2019-03-20T16:25:29.259Z,95965.93
2019-03-20T16:27:53.328Z,95975.36
2019-03-20T16:30:19.377Z,95975.66
2019-03-20T16:32:45.398Z,95981.91
2019-03-20T16:35:11.407Z,95990.00
2019-03-20T16:37:37.439Z,95985.27
2019-03-20T16:40:03.436Z,95996.48
2019-03-20T16:42:29.438Z,95998.81
2019-03-20T16:44:55.452Z,96001.17
2019-03-20T16:47:21.463Z,96003.01
2019-03-20T16:49:47.479Z,96009.27
2019-03-20T16:52:15.578Z,96012.05
2019-03-20T16:54:39.475Z,96019.33
2019-03-20T16:57:05.495Z,96015.93
2019-03-20T16:59:31.494Z,96023.52
2019-03-20T17:01:57.485Z,96034.28
2019-03-20T17:04:23.506Z,96032.11
2019-03-20T17:06:49.502Z,96037.98
2019-03-20T17:09:15.510Z,96041.14
2019-03-20T17:11:41.508Z,96046.59
2019-03-20T17:14:07.515Z,96050.59
2019-03-20T17:16:33.527Z,96064.86
2019-03-20T17:18:59.551Z,96065.67
2019-03-20T17:21:25.575Z,96073.79
2019-03-20T17:23:52.483Z,96079.55
2019-03-20T17:26:19.226Z,96087.22
2019-03-20T17:28:45.286Z,96092.17
2019-03-20T17:31:11.348Z,96094.50
2019-03-20T17:33:37.406Z,96095.41
2019-03-20T17:36:03.405Z,96100.44
2019-03-20T17:38:29.535Z,96099.11
2019-03-20T17:40:55.532Z,96102.27
2019-03-20T17:43:21.532Z,96106.88
2019-03-20T17:45:47.545Z,96108.22
2019-03-20T17:48:13.550Z,96111.80
2019-03-20T17:50:39.557Z,96110.58
2019-03-20T17:53:05.566Z,96102.64
2019-03-20T17:55:31.563Z,96112.75
2019-03-20T17:57:57.569Z,96115.42
2019-03-20T18:00:23.578Z,96120.05
2019-03-20T18:02:49.631Z,96126.30
2019-03-20T18:05:15.667Z,96123.81
2019-03-20T18:07:41.658Z,96129.58
2019-03-20T18:10:07.675Z,96138.11
2019-03-20T18:12:33.672Z,96141.70
2019-03-20T18:14:59.678Z,96142.84
2019-03-20T18:17:25.750Z,96146.38
2019-03-20T18:19:51.885Z,96150.56
2019-03-20T18:22:17.916Z,96154.26
2019-03-20T18:24:43.929Z,96162.69
2019-03-20T18:27:09.923Z,96163.19
2019-03-20T18:29:35.943Z,96169.63
2019-03-20T18:32:01.963Z,96173.55
2019-03-20T18:34:27.968Z,96183.89
2019-03-20T18:36:53.979Z,96177.14
2019-03-20T18:39:20.730Z,96186.48
2019-03-20T18:41:45.967Z,96183.81
2019-03-20T18:44:11.959Z,96183.31
2019-03-20T18:46:38.278Z,96188.13
2019-03-20T18:49:04.274Z,96186.80
2019-03-20T18:51:30.302Z,96193.81
2019-03-20T18:53:56.294Z,96194.62
2019-03-20T18:56:22.500Z,96194.12
2019-03-20T18:58:48.601Z,96195.64
2019-03-20T19:01:15.624Z,96196.56
2019-03-20T19:03:43.439Z,96192.14
2019-03-20T19:06:09.464Z,96195.72
2019-03-20T19:08:35.473Z,96198.81
2019-03-20T19:11:01.810Z,96197.05
2019-03-20T19:13:27.838Z,96207.53
2019-03-20T19:15:54.088Z,96206.19
2019-03-20T19:18:27.323Z,96207.72
2019-03-20T19:20:53.811Z,96212.11
2019-03-20T19:23:19.823Z,96215.61
2019-03-20T19:25:45.832Z,96214.70
2019-03-20T19:30:58.092Z,96221.27
2019-03-20T19:33:24.092Z,96224.96
2019-03-20T19:35:50.145Z,96224.47
2019-03-20T19:38:17.248Z,96225.38
2019-03-20T19:40:42.164Z,96226.72
2019-03-20T19:43:08.167Z,96233.88
2019-03-20T19:45:34.186Z,96234.98
2019-03-20T19:48:00.220Z,96231.92
2019-03-20T19:50:26.215Z,96239.09
2019-03-20T19:52:52.218Z,96234.36
2019-03-20T19:55:18.227Z,96228.10
2019-03-20T19:57:44.247Z,96228.67
2019-03-20T20:00:11.353Z,96230.84
2019-03-20T20:02:37.362Z,96230.24
2019-03-20T20:05:03.414Z,96233.44
2019-03-20T20:07:29.402Z,96233.33
2019-03-20T20:09:55.406Z,96236.50
2019-03-20T20:12:30.811Z,96229.83
2019-03-20T20:14:49.041Z,96229.52
2019-03-20T20:17:15.428Z,96232.60
2019-03-20T20:19:41.431Z,96237.52
2019-03-20T20:22:07.469Z,96241.10
2019-03-20T20:24:33.486Z,96240.69
2019-03-20T20:26:59.482Z,96246.02
2019-03-20T20:29:25.508Z,96243.15
2019-03-20T20:31:51.478Z,96248.38
2019-03-20T20:34:17.474Z,96247.88
2019-03-20T20:36:43.492Z,96248.38
2019-03-20T20:39:09.482Z,96250.73
2019-03-20T20:41:35.485Z,96244.14
2019-03-20T20:44:01.479Z,96248.14
2019-03-20T20:46:28.737Z,96251.34
2019-03-20T20:48:54.730Z,96252.98
2019-03-20T20:51:20.730Z,96250.39
2019-03-20T20:53:46.733Z,96250.39
2019-03-20T20:56:12.787Z,96252.67
2019-03-20T20:58:38.815Z,96249.59
2019-03-20T21:01:07.284Z,96257.59
2019-03-20T21:03:33.293Z,96253.24
2019-03-20T21:05:59.332Z,96251.10
2019-03-20T21:08:25.342Z,96255.00
2019-03-20T21:10:51.336Z,96258.19
2019-03-20T21:13:20.109Z,96255.91
2019-03-20T21:15:46.109Z,96257.36
2019-03-20T21:18:12.327Z,96260.02
2019-03-20T21:20:38.127Z,96263.11
2019-03-20T21:23:04.122Z,96261.36
2019-03-20T21:25:30.130Z,96261.85
2019-03-20T21:27:56.132Z,96260.09
2019-03-20T21:30:22.160Z,96264.10
2019-03-20T21:32:48.160Z,96265.93
2019-03-20T21:35:14.156Z,96268.18
2019-03-20T21:37:40.160Z,96275.77
2019-03-20T21:40:06.157Z,96274.44
2019-03-20T21:42:32.168Z,96275.77
2019-03-20T21:44:58.150Z,96275.77
2019-03-20T21:47:24.152Z,96276.61
2019-03-20T21:49:50.153Z,96280.19
2019-03-20T21:52:16.174Z,96286.52
2019-03-20T21:54:42.168Z,96286.87
2019-03-20T21:57:08.164Z,96285.53
2019-03-20T21:59:34.164Z,96291.47
2019-03-20T22:02:00.167Z,96282.63
2019-03-20T22:04:26.327Z,96285.71
2019-03-20T22:06:52.325Z,96286.63
2019-03-20T22:09:18.324Z,96277.78
2019-03-20T22:11:44.321Z,96286.20
2019-03-20T22:14:10.339Z,96284.38
2019-03-20T22:16:36.335Z,96284.45
2019-03-20T22:19:02.333Z,96281.78
2019-03-20T22:21:28.385Z,96287.23
2019-03-20T22:23:54.364Z,96286.31
2019-03-20T22:26:20.375Z,96284.03
2019-03-20T22:28:46.367Z,96285.89
2019-03-20T22:31:12.375Z,96291.13
2019-03-20T22:33:38.372Z,96287.65
2019-03-20T22:36:04.381Z,96284.73
2019-03-20T22:38:30.377Z,96289.05
2019-03-20T22:40:56.402Z,96298.82
2019-03-20T22:43:30.210Z,96291.83
2019-03-20T22:45:48.394Z,96291.83
2019-03-20T22:48:14.393Z,96302.41
2019-03-20T22:50:40.387Z,96302.83
2019-03-20T22:53:06.390Z,96302.09
2019-03-20T22:55:32.386Z,96301.56
2019-03-20T22:57:58.386Z,96306.09
2019-03-20T23:00:24.385Z,96308.77
2019-03-20T23:02:50.402Z,96312.66
2019-03-20T23:05:16.400Z,96305.17
2019-03-20T23:07:42.400Z,96305.67
2019-03-20T23:10:08.408Z,96312.77
2019-03-20T23:12:34.403Z,96306.58
2019-03-20T23:15:00.403Z,96307.42
2019-03-20T23:17:26.394Z,96311.02
2019-03-20T23:19:52.408Z,96311.08
2019-03-20T23:22:18.407Z,96307.50
2019-03-20T23:24:44.408Z,96304.02
2019-03-20T23:27:10.405Z,96309.75
2019-03-20T23:29:36.414Z,96307.08
2019-03-20T23:32:02.411Z,96311.61
2019-03-20T23:34:28.414Z,96308.10
2019-03-20T23:36:54.410Z,96309.44
2019-03-20T23:39:20.407Z,96309.02
2019-03-20T23:41:46.411Z,96311.27
2019-03-20T23:44:12.403Z,96309.92
2019-03-20T23:46:38.408Z,96312.20
2019-03-20T23:49:04.406Z,96308.59
2019-03-20T23:51:30.408Z,96314.35
2019-03-20T23:53:56.410Z,96315.38
2019-03-20T23:56:22.407Z,96315.38
2019-03-20T23:58:48.411Z,96315.69
